Time;durP1;ratioP1;P1;durP2;ratioP2;P2;SDS_P1;SDS_P2;PMS_P1;PMS_P2;Temp;Humidity;BMP_temperature;BMP_pressure;BME280_temperature;BME280_humidity;BME280_pressure;Samples;Min_cycle;Max_cycle;Signal;HPM_P1;HPM_P2
2023/06/14 00:01:34;;;;;;;5.60;5.00;;;14.00;91.80;;;;;;501161;237;28760;-76
2023/06/14 00:03:33;;;;;;;4.80;4.20;;;14.00;91.90;;;;;;501043;237;28823;-76
2023/06/14 00:05:38;;;;;;;6.07;4.57;;;14.00;92.00;;;;;;501180;237;29231;-76
2023/06/14 00:07:36;;;;;;;5.50;4.20;;;14.00;92.00;;;;;;500874;237;29180;-77
2023/06/14 00:09:37;;;;;;;5.97;4.60;;;14.10;92.40;;;;;;501113;237;29335;-77
2023/06/14 00:11:38;;;;;;;5.90;4.00;;;14.00;92.60;;;;;;501082;237;30050;-76
2023/06/14 00:13:40;;;;;;;4.93;4.43;;;14.00;92.70;;;;;;501122;237;28736;-76
2023/06/14 00:15:42;;;;;;;9.50;5.13;;;13.90;92.90;;;;;;501061;237;28756;-76
2023/06/14 00:17:44;;;;;;;5.20;4.70;;;13.80;93.40;;;;;;501133;237;28723;-76
2023/06/14 00:19:43;;;;;;;4.50;4.10;;;13.80;93.50;;;;;;501011;237;28768;-76
2023/06/14 00:21:45;;;;;;;6.13;5.10;;;13.80;93.60;;;;;;501165;237;28740;-77
2023/06/14 00:23:46;;;;;;;5.30;4.67;;;13.80;93.80;;;;;;501150;237;28768;-76
2023/06/14 00:25:47;;;;;;;6.63;4.83;;;13.90;93.70;;;;;;501179;237;28764;-76
2023/06/14 00:27:49;;;;;;;4.90;4.40;;;13.80;93.30;;;;;;501174;237;28738;-77
2023/06/14 00:29:50;;;;;;;5.10;4.60;;;13.70;93.60;;;;;;501128;237;28881;-76
2023/06/14 00:31:51;;;;;;;5.37;4.80;;;13.60;93.80;;;;;;501164;237;29336;-76
2023/06/14 00:33:52;;;;;;;5.77;4.80;;;13.60;93.80;;;;;;501149;237;29293;-76
2023/06/14 00:35:53;;;;;;;4.90;4.40;;;13.50;94.10;;;;;;501182;237;29283;-76
2023/06/14 00:37:55;;;;;;;4.70;4.30;;;13.50;94.50;;;;;;501185;237;28828;-76
2023/06/14 00:39:56;;;;;;;7.90;4.80;;;13.50;95.00;;;;;;501171;237;28863;-76
2023/06/14 00:41:59;;;;;;;8.60;4.90;;;13.40;95.60;;;;;;501204;237;28731;-76
2023/06/14 00:43:59;;;;;;;5.50;4.90;;;13.40;95.90;;;;;;501124;237;28765;-76
2023/06/14 00:46:00;;;;;;;6.13;5.00;;;13.30;96.80;;;;;;501186;237;29260;-76
2023/06/14 00:48:01;;;;;;;5.30;4.80;;;13.20;97.00;;;;;;501238;237;28506;-76
2023/06/14 00:50:02;;;;;;;5.93;5.27;;;13.20;97.40;;;;;;501171;237;28863;-76
2023/06/14 00:52:03;;;;;;;5.60;5.00;;;13.20;97.40;;;;;;501210;237;28430;-75
2023/06/14 00:54:05;;;;;;;5.07;4.60;;;13.10;97.40;;;;;;501184;237;29240;-76
2023/06/14 00:56:06;;;;;;;6.07;4.60;;;13.10;97.80;;;;;;501216;237;29336;-76
2023/06/14 00:58:07;;;;;;;5.80;5.30;;;13.10;97.90;;;;;;501237;237;29196;-77
2023/06/14 01:00:09;;;;;;;4.93;4.50;;;13.20;97.90;;;;;;501209;237;28417;-76
2023/06/14 01:02:10;;;;;;;5.60;5.10;;;13.00;98.10;;;;;;501229;237;28345;-75
2023/06/14 01:04:11;;;;;;;4.60;4.20;;;13.10;98.20;;;;;;501190;237;28380;-78
2023/06/14 01:06:14;;;;;;;5.90;4.40;;;13.00;98.30;;;;;;501238;237;28447;-76
2023/06/14 01:08:14;;;;;;;5.90;5.30;;;13.10;98.30;;;;;;501127;237;28323;-76
2023/06/14 01:10:15;;;;;;;6.90;4.70;;;13.10;98.20;;;;;;501194;237;28568;-76
2023/06/14 01:12:16;;;;;;;4.77;4.37;;;13.00;98.10;;;;;;501243;237;28731;-76
2023/06/14 01:14:17;;;;;;;7.40;5.47;;;13.00;98.00;;;;;;501165;237;28877;-76
2023/06/14 01:16:19;;;;;;;6.00;5.50;;;12.90;98.20;;;;;;501211;237;28766;-76
2023/06/14 01:18:20;;;;;;;8.17;5.00;;;13.00;98.50;;;;;;501250;237;29029;-76
2023/06/14 01:20:21;;;;;;;8.80;5.03;;;13.00;98.50;;;;;;501201;237;29363;-76
2023/06/14 01:22:22;;;;;;;5.10;4.70;;;13.10;98.40;;;;;;501277;237;29254;-75
2023/06/14 01:24:25;;;;;;;5.80;5.20;;;13.00;98.20;;;;;;501231;237;28476;-76
2023/06/14 01:26:26;;;;;;;5.20;4.70;;;13.00;98.30;;;;;;501140;237;28730;-76
2023/06/14 01:28:26;;;;;;;5.77;4.70;;;12.90;98.60;;;;;;501193;237;28774;-76
2023/06/14 01:30:28;;;;;;;7.80;4.93;;;12.90;99.30;;;;;;501185;237;28788;-76
2023/06/14 01:32:29;;;;;;;5.77;5.17;;;12.80;99.30;;;;;;501235;237;28774;-76
2023/06/14 01:34:30;;;;;;;5.90;5.40;;;12.80;99.30;;;;;;501201;237;28519;-76
2023/06/14 01:36:31;;;;;;;7.43;5.30;;;12.80;99.00;;;;;;501232;237;28329;-76
2023/06/14 01:38:32;;;;;;;6.17;5.27;;;12.80;98.90;;;;;;501211;237;28405;-76
2023/06/14 01:40:34;;;;;;;5.30;4.63;;;12.70;99.00;;;;;;501178;236;28843;-76
2023/06/14 01:42:35;;;;;;;6.50;4.53;;;12.70;99.10;;;;;;501216;237;28506;-76
2023/06/14 01:44:36;;;;;;;5.77;5.27;;;12.60;99.30;;;;;;501188;237;29275;-76
2023/06/14 01:46:37;;;;;;;5.37;4.87;;;12.50;99.60;;;;;;501198;237;28976;-76
2023/06/14 01:48:39;;;;;;;5.80;5.03;;;12.50;99.70;;;;;;501176;237;29334;-76
2023/06/14 01:50:40;;;;;;;5.80;5.07;;;12.50;99.90;;;;;;501195;237;28378;-76
2023/06/14 01:52:41;;;;;;;5.70;4.90;;;12.50;99.90;;;;;;501200;237;28367;-76
2023/06/14 01:54:43;;;;;;;6.60;5.20;;;12.40;99.90;;;;;;501139;237;28311;-76
2023/06/14 01:56:44;;;;;;;4.93;4.53;;;12.40;99.90;;;;;;501149;237;28313;-76
2023/06/14 01:58:45;;;;;;;6.03;5.50;;;12.40;99.90;;;;;;501144;237;28332;-76
2023/06/14 02:00:47;;;;;;;9.50;4.80;;;12.40;99.90;;;;;;501168;237;28854;-76
2023/06/14 02:02:47;;;;;;;6.17;5.20;;;12.30;99.90;;;;;;501156;237;28248;-77
2023/06/14 02:04:49;;;;;;;5.33;4.83;;;12.30;99.90;;;;;;501146;237;28222;-77
2023/06/14 02:06:50;;;;;;;8.07;5.20;;;12.30;99.90;;;;;;501171;237;28283;-76
2023/06/14 02:08:51;;;;;;;5.40;4.70;;;12.20;99.90;;;;;;501088;237;28856;-76
2023/06/14 02:10:52;;;;;;;6.40;5.50;;;12.20;99.90;;;;;;501129;237;28876;-76
2023/06/14 02:12:54;;;;;;;5.50;5.00;;;12.20;99.90;;;;;;501177;237;28938;-76
2023/06/14 02:14:56;;;;;;;5.70;5.20;;;12.20;99.90;;;;;;501149;237;28828;-76
2023/06/14 02:16:56;;;;;;;5.77;5.27;;;12.10;99.90;;;;;;501127;237;28404;-76
2023/06/14 02:18:57;;;;;;;5.63;5.13;;;12.10;99.90;;;;;;501130;237;28129;-76
2023/06/14 02:20:59;;;;;;;5.63;5.10;;;12.10;99.90;;;;;;501157;237;28753;-76
2023/06/14 02:23:00;;;;;;;5.57;5.07;;;12.10;99.90;;;;;;501167;237;28093;-76
2023/06/14 02:25:01;;;;;;;5.90;5.27;;;12.10;99.90;;;;;;501126;237;28273;-76
2023/06/14 02:27:03;;;;;;;7.70;5.60;;;12.00;99.90;;;;;;501149;237;28226;-76
2023/06/14 02:29:05;;;;;;;7.70;5.37;;;11.90;99.90;;;;;;501153;237;28262;-76
2023/06/14 02:31:05;;;;;;;5.70;5.20;;;11.80;99.90;;;;;;501098;237;28367;-76
2023/06/14 02:33:06;;;;;;;6.30;5.47;;;11.70;99.90;;;;;;501208;237;28208;-76
2023/06/14 02:35:07;;;;;;;5.73;5.23;;;11.70;99.90;;;;;;501169;237;28609;-76
2023/06/14 02:37:09;;;;;;;6.03;5.43;;;11.60;99.90;;;;;;501192;237;28530;-76
2023/06/14 02:39:10;;;;;;;5.80;5.20;;;11.60;99.90;;;;;;501183;234;28655;-75
2023/06/14 02:41:11;;;;;;;10.30;6.03;;;11.60;99.90;;;;;;501135;237;28867;-75
2023/06/14 02:43:12;;;;;;;5.93;5.33;;;11.50;99.90;;;;;;501196;237;28132;-76
2023/06/14 02:45:14;;;;;;;6.73;4.87;;;11.50;99.90;;;;;;501141;237;28346;-76
2023/06/14 02:47:15;;;;;;;6.93;5.20;;;11.60;99.90;;;;;;501123;237;28091;-76
2023/06/14 02:49:16;;;;;;;11.83;5.67;;;11.60;99.90;;;;;;501144;237;28173;-76
2023/06/14 02:51:17;;;;;;;5.47;4.97;;;11.70;99.90;;;;;;501110;237;28852;-76
2023/06/14 02:53:20;;;;;;;5.20;4.70;;;;;;;;;;501168;237;28307;-76
2023/06/14 02:55:21;;;;;;;8.77;6.30;;;11.60;99.90;;;;;;501113;237;26493;-76
2023/06/14 02:57:23;;;;;;;6.20;5.27;;;11.50;99.90;;;;;;501136;237;28294;-76
2023/06/14 02:59:25;;;;;;;6.70;5.87;;;11.50;99.90;;;;;;501125;237;28188;-76
2023/06/14 03:01:33;;;;;;;8.00;5.57;;;11.40;99.90;;;;;;501094;237;28341;-76
2023/06/14 03:03:26;;;;;;;10.43;6.13;;;11.40;99.90;;;;;;500522;237;28774;-76
2023/06/14 03:05:27;;;;;;;8.87;5.60;;;11.40;99.90;;;;;;501129;237;28407;-76
2023/06/14 03:07:29;;;;;;;6.30;5.70;;;11.30;99.90;;;;;;501170;237;28254;-76
2023/06/14 03:09:30;;;;;;;6.93;5.40;;;11.30;99.90;;;;;;501144;237;28798;-75
2023/06/14 03:11:31;;;;;;;9.53;5.37;;;11.30;99.90;;;;;;501122;237;28616;-76
2023/06/14 03:13:33;;;;;;;10.10;5.60;;;11.20;99.90;;;;;;501183;237;28725;-76
2023/06/14 03:15:34;;;;;;;5.50;4.97;;;11.30;99.90;;;;;;501163;237;28340;-76
2023/06/14 03:17:38;;;;;;;7.60;5.73;;;11.30;99.90;;;;;;501191;237;28612;-76
2023/06/14 03:19:36;;;;;;;5.83;5.33;;;11.30;99.90;;;;;;500939;237;28401;-76
2023/06/14 03:21:38;;;;;;;9.20;5.93;;;11.30;99.90;;;;;;501156;237;28271;-75
2023/06/14 03:23:39;;;;;;;7.10;5.33;;;11.30;99.90;;;;;;501131;237;28640;-76
2023/06/14 03:25:42;;;;;;;6.23;5.30;;;11.40;99.90;;;;;;501157;237;28233;-76
2023/06/14 03:27:41;;;;;;;6.77;5.50;;;11.40;99.90;;;;;;501069;237;28149;-76
2023/06/14 03:29:42;;;;;;;8.23;6.00;;;11.50;99.90;;;;;;501142;237;28512;-76
2023/06/14 03:31:44;;;;;;;5.67;5.13;;;11.50;99.90;;;;;;501131;237;28301;-76
2023/06/14 03:33:45;;;;;;;6.60;5.90;;;11.60;99.90;;;;;;501181;237;28537;-77
2023/06/14 03:35:46;;;;;;;5.27;4.77;;;11.70;99.90;;;;;;501143;237;28117;-76
2023/06/14 03:37:47;;;;;;;7.43;5.70;;;11.70;99.90;;;;;;501179;237;28404;-77
2023/06/14 03:39:49;;;;;;;6.07;5.50;;;11.70;99.90;;;;;;501180;237;28769;-75
2023/06/14 03:41:50;;;;;;;5.47;5.03;;;11.70;99.90;;;;;;501139;237;28916;-76
2023/06/14 03:43:51;;;;;;;7.83;5.43;;;11.80;99.90;;;;;;501201;237;28617;-76
2023/06/14 03:45:52;;;;;;;6.00;5.07;;;11.90;99.90;;;;;;501140;237;28710;-77
2023/06/14 03:47:54;;;;;;;5.63;5.07;;;11.90;99.90;;;;;;501154;236;28279;-76
2023/06/14 03:49:55;;;;;;;6.17;5.57;;;12.00;99.90;;;;;;501133;237;28097;-76
2023/06/14 03:51:56;;;;;;;6.13;5.13;;;12.00;99.90;;;;;;501107;237;28200;-76
2023/06/14 03:53:57;;;;;;;7.43;5.80;;;12.10;99.90;;;;;;501166;237;28163;-76
2023/06/14 03:56:00;;;;;;;5.60;5.00;;;;;;;;;;501145;237;28254;-76
2023/06/14 03:58:01;;;;;;;6.60;5.90;;;12.00;99.90;;;;;;501129;237;27074;-76
2023/06/14 04:00:05;;;;;;;8.57;6.37;;;12.10;99.90;;;;;;501141;237;28262;-76
2023/06/14 04:02:04;;;;;;;9.43;6.93;;;12.10;99.90;;;;;;500948;237;28252;-76
2023/06/14 04:04:05;;;;;;;6.93;6.23;;;12.00;99.90;;;;;;501172;237;28106;-76
2023/06/14 04:06:07;;;;;;;9.93;6.30;;;11.90;99.90;;;;;;501113;237;28275;-76
2023/06/14 04:08:08;;;;;;;9.60;6.10;;;11.80;99.90;;;;;;501085;237;28329;-76
2023/06/14 04:10:09;;;;;;;6.27;5.67;;;11.80;99.90;;;;;;501021;236;28303;-76
2023/06/14 04:12:11;;;;;;;6.37;5.77;;;11.80;99.90;;;;;;501016;237;28111;-76
2023/06/14 04:14:11;;;;;;;6.70;6.10;;;11.80;99.90;;;;;;501047;237;28647;-76
2023/06/14 04:16:12;;;;;;;6.73;5.60;;;11.80;99.90;;;;;;501048;237;28268;-76
2023/06/14 04:18:14;;;;;;;6.63;5.27;;;11.80;99.90;;;;;;501112;237;28544;-76
2023/06/14 04:20:16;;;;;;;7.77;5.77;;;11.90;99.90;;;;;;500970;236;28785;-76
2023/06/14 04:22:16;;;;;;;6.33;5.73;;;12.00;99.90;;;;;;501033;237;28713;-76
2023/06/14 04:24:17;;;;;;;6.37;5.77;;;12.10;99.90;;;;;;501105;237;28120;-76
2023/06/14 04:26:20;;;;;;;5.90;5.30;;;12.30;99.90;;;;;;501130;237;28244;-76
2023/06/14 04:28:20;;;;;;;9.57;6.27;;;12.40;99.90;;;;;;501106;237;28214;-76
2023/06/14 04:30:26;;;;;;;6.00;5.40;;;12.50;99.90;;;;;;501143;237;28140;-76
2023/06/14 04:32:25;;;;;;;6.10;5.50;;;12.60;99.90;;;;;;500712;237;28195;-76
2023/06/14 04:34:24;;;;;;;7.33;6.10;;;12.70;99.90;;;;;;500940;237;28346;-77
2023/06/14 04:36:27;;;;;;;6.17;5.60;;;12.80;99.90;;;;;;501148;237;28437;-76
2023/06/14 04:38:28;;;;;;;6.63;5.90;;;12.90;99.90;;;;;;501052;237;28327;-76
2023/06/14 04:40:27;;;;;;;6.23;5.73;;;13.00;99.90;;;;;;501085;237;28448;-77
2023/06/14 04:42:30;;;;;;;7.37;6.07;;;13.00;99.90;;;;;;501142;237;28727;-76
2023/06/14 04:44:31;;;;;;;6.67;5.90;;;13.10;99.90;;;;;;501014;237;28930;-76
2023/06/14 04:46:31;;;;;;;6.10;5.50;;;13.10;99.90;;;;;;501069;237;29398;-75
2023/06/14 04:48:32;;;;;;;7.50;5.77;;;13.10;99.90;;;;;;501084;237;29189;-76
2023/06/14 04:50:34;;;;;;;8.60;5.90;;;13.20;99.90;;;;;;501133;237;28774;-76
2023/06/14 04:52:35;;;;;;;6.30;5.70;;;13.20;99.90;;;;;;501088;237;28533;-76
2023/06/14 04:54:41;;;;;;;6.33;5.73;;;13.20;99.90;;;;;;501137;237;28763;-76
2023/06/14 04:56:37;;;;;;;7.57;5.80;;;13.30;99.90;;;;;;500695;237;28428;-76
2023/06/14 04:58:39;;;;;;;6.97;6.07;;;13.50;99.90;;;;;;501164;237;28754;-76
2023/06/14 05:00:42;;;;;;;7.47;5.80;;;13.60;99.90;;;;;;501151;237;28352;-77
2023/06/14 05:02:41;;;;;;;7.67;5.57;;;13.70;99.90;;;;;;500985;237;29214;-77
2023/06/14 05:04:42;;;;;;;13.53;5.63;;;13.80;99.90;;;;;;501125;237;29165;-77
2023/06/14 05:06:48;;;;;;;10.20;6.17;;;13.90;99.90;;;;;;501100;237;28811;-77
2023/06/14 05:08:48;;;;;;;7.87;6.03;;;14.00;99.90;;;;;;501048;237;29187;-76
2023/06/14 05:10:49;;;;;;;8.80;6.50;;;14.00;99.90;;;;;;501130;237;29237;-76
2023/06/14 05:12:52;;;;;;;11.60;8.00;;;14.10;99.90;;;;;;501138;237;29338;-77
2023/06/14 05:14:51;;;;;;;6.77;5.57;;;14.40;99.90;;;;;;500993;237;28784;-75
2023/06/14 05:16:53;;;;;;;7.33;5.73;;;14.60;99.60;;;;;;501114;237;28774;-77
2023/06/14 05:18:54;;;;;;;8.00;5.40;;;14.70;99.40;;;;;;501145;237;28708;-76
2023/06/14 05:20:55;;;;;;;6.13;5.53;;;14.80;98.80;;;;;;501103;237;28762;-76
2023/06/14 05:22:56;;;;;;;6.50;5.63;;;14.90;98.80;;;;;;501102;237;28727;-76
2023/06/14 05:24:58;;;;;;;5.80;5.20;;;15.00;98.40;;;;;;501166;237;28718;-76
2023/06/14 05:26:59;;;;;;;8.20;5.60;;;15.00;98.40;;;;;;501116;237;28769;-77
2023/06/14 05:29:01;;;;;;;7.60;6.10;;;15.10;98.50;;;;;;501120;237;28797;-75
2023/06/14 05:31:01;;;;;;;10.40;6.17;;;15.10;98.10;;;;;;501126;237;28809;-76
2023/06/14 05:33:03;;;;;;;8.63;5.77;;;15.20;98.20;;;;;;501111;237;30277;-76
2023/06/14 05:35:04;;;;;;;7.30;5.80;;;15.20;98.10;;;;;;501133;237;29178;-76
2023/06/14 05:37:05;;;;;;;7.50;5.50;;;15.30;97.90;;;;;;501091;237;29310;-76
2023/06/14 05:39:06;;;;;;;10.03;6.00;;;15.30;97.70;;;;;;501120;237;28770;-76
2023/06/14 05:41:08;;;;;;;6.10;5.10;;;15.30;97.90;;;;;;501123;237;28752;-77
2023/06/14 05:43:10;;;;;;;10.87;5.77;;;15.40;98.10;;;;;;501144;237;28848;-76
2023/06/14 05:45:10;;;;;;;6.17;5.50;;;15.40;97.90;;;;;;501130;237;28807;-75
2023/06/14 05:47:12;;;;;;;6.03;5.43;;;15.50;97.70;;;;;;501155;237;28757;-76
2023/06/14 05:49:13;;;;;;;16.57;6.10;;;15.60;97.50;;;;;;501189;237;28721;-76
2023/06/14 05:51:14;;;;;;;7.83;5.87;;;15.60;97.30;;;;;;501185;237;28767;-76
2023/06/14 05:53:15;;;;;;;6.87;4.73;;;15.60;97.60;;;;;;501137;237;28707;-75
2023/06/14 05:55:16;;;;;;;6.50;5.30;;;15.70;97.30;;;;;;501201;237;29316;-76
2023/06/14 05:57:18;;;;;;;7.00;5.90;;;15.70;97.20;;;;;;501189;237;29243;-76
2023/06/14 05:59:19;;;;;;;7.40;5.40;;;15.80;97.20;;;;;;501194;237;29268;-77
2023/06/14 06:01:20;;;;;;;6.27;5.00;;;15.80;97.20;;;;;;501175;237;29258;-77
2023/06/14 06:03:22;;;;;;;10.43;6.10;;;15.90;97.00;;;;;;501116;237;28759;-76
2023/06/14 06:05:23;;;;;;;8.33;5.73;;;15.90;97.00;;;;;;501151;237;28743;-76
2023/06/14 06:07:24;;;;;;;7.50;6.17;;;16.00;97.30;;;;;;501157;237;28743;-77
2023/06/14 06:09:25;;;;;;;8.80;5.80;;;16.10;96.90;;;;;;501168;237;29217;-75
2023/06/14 06:11:26;;;;;;;7.30;5.30;;;16.10;96.90;;;;;;501142;237;28762;-77
2023/06/14 06:13:28;;;;;;;7.63;5.83;;;16.20;97.10;;;;;;501110;237;28730;-75
2023/06/14 06:15:29;;;;;;;7.03;5.57;;;16.10;96.90;;;;;;501135;237;28758;-76
2023/06/14 06:17:30;;;;;;;8.10;5.50;;;16.10;96.70;;;;;;501182;237;28746;-77
2023/06/14 06:19:31;;;;;;;9.20;5.37;;;16.10;96.70;;;;;;501178;237;29255;-76
2023/06/14 06:21:33;;;;;;;6.30;5.50;;;16.20;97.00;;;;;;501162;237;29329;-77
2023/06/14 06:23:35;;;;;;;6.90;4.93;;;16.20;96.90;;;;;;501124;237;29251;-75
2023/06/14 06:25:35;;;;;;;8.33;5.43;;;16.30;96.90;;;;;;501133;237;29336;-75
2023/06/14 06:27:37;;;;;;;7.17;5.63;;;16.40;96.90;;;;;;501183;237;28767;-76
2023/06/14 06:29:38;;;;;;;6.60;5.60;;;16.40;96.70;;;;;;501139;234;28845;-75
2023/06/14 06:31:39;;;;;;;10.60;5.70;;;16.40;96.90;;;;;;501137;237;28838;-76
2023/06/14 06:33:40;;;;;;;7.47;5.67;;;16.50;96.80;;;;;;501126;237;28722;-76
2023/06/14 06:35:42;;;;;;;11.47;5.60;;;16.70;96.80;;;;;;501159;237;29351;-75
2023/06/14 06:37:43;;;;;;;7.27;5.37;;;16.60;96.30;;;;;;501151;237;29241;-76
2023/06/14 06:39:44;;;;;;;12.67;5.60;;;16.60;96.30;;;;;;501152;237;29345;-76
2023/06/14 06:41:45;;;;;;;9.23;5.87;;;16.60;96.60;;;;;;501148;237;28747;-76
2023/06/14 06:43:47;;;;;;;7.43;5.40;;;16.60;96.30;;;;;;501114;237;28717;-76
2023/06/14 06:45:48;;;;;;;6.73;6.03;;;16.60;96.40;;;;;;501167;237;28848;-76
2023/06/14 06:47:50;;;;;;;6.90;5.90;;;16.70;96.50;;;;;;501178;237;28773;-77
2023/06/14 06:49:50;;;;;;;10.23;5.47;;;16.80;96.30;;;;;;501155;237;28714;-76
2023/06/14 06:51:52;;;;;;;7.97;5.10;;;16.80;96.10;;;;;;501161;237;28886;-76
2023/06/14 06:53:53;;;;;;;8.93;5.57;;;16.90;96.30;;;;;;501138;237;28799;-76
2023/06/14 06:55:55;;;;;;;7.70;5.50;;;17.00;96.10;;;;;;501143;237;28797;-76
2023/06/14 06:57:55;;;;;;;13.43;6.17;;;17.00;95.80;;;;;;501113;237;29273;-76
2023/06/14 06:59:57;;;;;;;12.73;5.90;;;17.00;95.80;;;;;;501136;237;29297;-75
2023/06/14 07:01:58;;;;;;;8.73;5.80;;;17.00;95.70;;;;;;501172;237;29241;-77
2023/06/14 07:03:59;;;;;;;7.67;5.97;;;17.00;95.60;;;;;;501112;237;28733;-75
2023/06/14 07:06:00;;;;;;;8.80;5.50;;;17.10;95.70;;;;;;501145;237;28877;-75
2023/06/14 07:08:02;;;;;;;10.70;6.00;;;17.40;95.80;;;;;;501168;237;28768;-77
2023/06/14 07:10:04;;;;;;;8.10;5.37;;;17.50;95.30;;;;;;501211;237;28821;-75
2023/06/14 07:12:04;;;;;;;5.97;4.93;;;17.50;95.00;;;;;;501142;237;28735;-76
2023/06/14 07:14:05;;;;;;;8.90;5.17;;;17.60;95.30;;;;;;501177;237;28733;-76
2023/06/14 07:16:07;;;;;;;8.97;5.40;;;17.60;94.90;;;;;;501172;237;28833;-76
2023/06/14 07:18:08;;;;;;;9.67;5.17;;;17.60;95.00;;;;;;501200;237;28858;-75
2023/06/14 07:20:13;;;;;;;9.30;5.73;;;17.60;95.30;;;;;;501245;237;28735;-76
2023/06/14 07:22:10;;;;;;;5.40;4.90;;;17.80;95.20;;;;;;500984;237;29261;-77
2023/06/14 07:24:12;;;;;;;15.37;6.37;;;17.80;94.80;;;;;;501090;237;29255;-76
2023/06/14 07:26:13;;;;;;;12.73;5.60;;;17.80;95.00;;;;;;501165;237;29329;-76
2023/06/14 07:28:14;;;;;;;7.70;5.23;;;17.80;94.90;;;;;;501203;237;28749;-76
2023/06/14 07:30:15;;;;;;;26.97;6.50;;;18.00;95.10;;;;;;501188;237;28730;-76
2023/06/14 07:32:17;;;;;;;9.27;5.07;;;18.10;94.20;;;;;;501193;237;28732;-75
2023/06/14 07:34:18;;;;;;;7.87;6.27;;;18.10;94.40;;;;;;501152;237;28716;-76
2023/06/14 07:36:19;;;;;;;6.10;5.43;;;18.10;94.00;;;;;;501192;237;28774;-76
2023/06/14 07:38:20;;;;;;;11.50;5.30;;;18.10;94.20;;;;;;501124;237;28793;-75
2023/06/14 07:40:22;;;;;;;10.30;6.17;;;18.30;94.70;;;;;;501209;237;28879;-76
2023/06/14 07:42:23;;;;;;;9.70;5.90;;;18.40;93.90;;;;;;501181;237;29407;-75
2023/06/14 07:44:24;;;;;;;9.60;5.30;;;18.50;93.70;;;;;;501126;237;29288;-76
2023/06/14 07:46:25;;;;;;;6.43;5.20;;;18.50;93.70;;;;;;501162;237;29246;-75
2023/06/14 07:48:27;;;;;;;8.17;5.40;;;18.50;93.80;;;;;;501077;236;29958;-74
2023/06/14 07:50:28;;;;;;;8.87;5.17;;;18.50;93.80;;;;;;501157;237;28738;-75
2023/06/14 07:52:29;;;;;;;7.27;4.70;;;18.60;93.50;;;;;;501149;237;28807;-76
2023/06/14 07:54:32;;;;;;;13.47;5.50;;;18.70;93.80;;;;;;501176;237;28813;-75
2023/06/14 07:56:32;;;;;;;8.93;5.10;;;18.80;93.20;;;;;;501057;237;28824;-77
2023/06/14 07:58:33;;;;;;;8.83;4.63;;;18.80;92.70;;;;;;501098;237;28719;-76
2023/06/14 08:00:34;;;;;;;6.93;5.57;;;18.90;92.50;;;;;;501139;237;28779;-75
2023/06/14 08:02:35;;;;;;;4.93;4.40;;;19.00;92.30;;;;;;495101;237;28762;-77
2023/06/14 08:04:37;;;;;;;7.10;4.60;;;19.00;91.60;;;;;;489589;242;28839;-76
2023/06/14 08:06:38;;;;;;;7.93;5.00;;;19.00;91.80;;;;;;489566;243;29339;-76
2023/06/14 08:08:39;;;;;;;12.43;4.63;;;19.00;91.50;;;;;;489557;243;29260;-76
2023/06/14 08:10:40;;;;;;;6.57;4.43;;;18.90;91.60;;;;;;489583;243;29315;-76
2023/06/14 08:12:42;;;;;;;6.10;4.73;;;19.00;91.80;;;;;;489583;242;28849;-76
2023/06/14 08:14:43;;;;;;;8.50;4.40;;;19.10;91.80;;;;;;489598;243;28773;-76
2023/06/14 08:16:44;;;;;;;11.90;4.60;;;19.20;91.70;;;;;;489595;243;28751;-76
2023/06/14 08:18:45;;;;;;;10.33;4.97;;;19.30;91.60;;;;;;489558;243;28695;-76
2023/06/14 08:20:47;;;;;;;5.40;4.87;;;19.50;92.00;;;;;;489563;243;28740;-76
2023/06/14 08:22:48;;;;;;;7.20;4.70;;;19.50;90.80;;;;;;489602;243;28822;-78
2023/06/14 08:24:49;;;;;;;6.00;5.23;;;19.50;90.50;;;;;;489592;243;28720;-76
2023/06/14 08:26:50;;;;;;;7.70;4.93;;;19.40;90.50;;;;;;489577;243;28794;-75
2023/06/14 08:28:52;;;;;;;9.70;4.77;;;19.20;90.90;;;;;;489558;243;29192;-75
2023/06/14 08:30:53;;;;;;;5.57;5.00;;;19.40;90.20;;;;;;489552;243;29314;-77
2023/06/14 08:32:56;;;;;;;4.90;4.40;;;19.40;90.10;;;;;;489584;243;29240;-76
2023/06/14 08:34:55;;;;;;;6.90;5.00;;;19.40;90.50;;;;;;489474;243;28728;-77
2023/06/14 08:36:57;;;;;;;6.57;5.30;;;19.50;90.20;;;;;;489575;243;28752;-77
2023/06/14 08:38:58;;;;;;;5.63;4.30;;;19.50;90.60;;;;;;489550;243;28767;-76
2023/06/14 08:40:59;;;;;;;7.20;5.70;;;19.60;90.90;;;;;;489572;243;28817;-76
2023/06/14 08:43:01;;;;;;;6.20;5.03;;;19.60;90.10;;;;;;489603;243;29227;-76
2023/06/14 08:45:02;;;;;;;8.47;5.20;;;19.40;90.00;;;;;;489618;243;28705;-77
2023/06/14 08:47:06;;;;;;;12.07;5.43;;;19.40;90.50;;;;;;489601;243;28792;-76
2023/06/14 08:49:07;;;;;;;7.37;4.47;;;19.50;90.00;;;;;;489576;243;29260;-76
2023/06/14 08:51:08;;;;;;;4.93;4.40;;;19.60;90.30;;;;;;489582;243;28802;-76
2023/06/14 08:53:10;;;;;;;10.33;4.77;;;19.80;90.40;;;;;;489537;243;28839;-76
2023/06/14 08:55:11;;;;;;;10.53;4.70;;;20.00;89.00;;;;;;489599;243;28745;-76
2023/06/14 08:57:16;;;;;;;8.37;5.00;;;20.00;89.10;;;;;;489631;243;28708;-76
2023/06/14 08:59:17;;;;;;;10.00;5.37;;;19.90;89.10;;;;;;489520;243;28723;-76
2023/06/14 09:01:19;;;;;;;10.90;4.20;;;19.80;87.80;;;;;;489499;243;28744;-76
2023/06/14 09:03:20;;;;;;;7.63;4.87;;;20.10;87.30;;;;;;489537;243;28704;-76
2023/06/14 09:05:21;;;;;;;7.23;5.13;;;20.00;87.30;;;;;;489526;243;28746;-76
2023/06/14 09:07:21;;;;;;;7.90;4.97;;;20.00;87.20;;;;;;489574;243;29093;-78
2023/06/14 09:09:28;;;;;;;5.97;4.27;;;20.20;87.30;;;;;;489614;243;28808;-76
2023/06/14 09:11:27;;;;;;;7.47;4.27;;;20.10;86.20;;;;;;486137;244;29169;-76
2023/06/14 09:13:28;;;;;;;5.53;4.90;;;19.90;83.10;;;;;;489599;242;29239;-76
2023/06/14 09:15:29;;;;;;;5.07;4.33;;;19.80;83.10;;;;;;489554;243;28787;-75
2023/06/14 09:17:30;;;;;;;8.80;4.33;;;19.90;84.50;;;;;;489577;243;28815;-76
2023/06/14 09:19:31;;;;;;;4.70;4.20;;;20.00;83.60;;;;;;489583;243;28833;-76
2023/06/14 09:21:33;;;;;;;8.83;4.17;;;20.30;85.50;;;;;;489582;243;28801;-75
2023/06/14 09:23:34;;;;;;;5.23;3.97;;;20.20;84.20;;;;;;489595;243;28836;-77
2023/06/14 09:25:35;;;;;;;5.97;4.47;;;20.00;84.50;;;;;;489559;243;28712;-76
2023/06/14 09:27:39;;;;;;;8.10;4.17;;;20.00;86.30;;;;;;492289;241;28902;-76
2023/06/14 09:29:38;;;;;;;4.73;4.00;;;20.10;84.10;;;;;;489235;242;28706;-76
2023/06/14 09:31:39;;;;;;;6.33;4.47;;;20.10;84.80;;;;;;486575;243;28741;-76
2023/06/14 09:33:40;;;;;;;7.37;4.10;;;20.30;84.10;;;;;;489280;242;28524;-76
2023/06/14 09:35:41;;;;;;;14.10;4.20;;;20.00;83.10;;;;;;489568;243;27903;-76
2023/06/14 09:37:43;;;;;;;5.30;3.97;;;20.00;83.90;;;;;;492270;241;29360;-76
2023/06/14 09:39:44;;;;;;;4.70;3.73;;;20.30;83.40;;;;;;489421;242;28809;-76
2023/06/14 09:41:45;;;;;;;7.90;4.10;;;20.60;82.80;;;;;;486600;243;28731;-76
2023/06/14 09:43:47;;;;;;;7.83;4.40;;;20.50;83.00;;;;;;489579;242;28827;-77
2023/06/14 09:45:48;;;;;;;6.97;3.93;;;20.50;81.90;;;;;;489571;243;28708;-76
2023/06/14 09:47:49;;;;;;;9.70;4.50;;;20.50;81.50;;;;;;489415;242;28924;-76
2023/06/14 09:49:50;;;;;;;7.57;3.87;;;20.60;81.00;;;;;;489521;243;28820;-75
2023/06/14 09:51:52;;;;;;;8.50;4.67;;;20.50;79.30;;;;;;489523;243;28763;-76
2023/06/14 09:53:53;;;;;;;4.63;4.20;;;20.40;80.60;;;;;;489536;243;28744;-76
2023/06/14 09:55:54;;;;;;;5.40;3.93;;;20.40;80.50;;;;;;489570;243;29198;-76
2023/06/14 09:57:55;;;;;;;6.40;3.93;;;20.50;81.70;;;;;;489567;242;29245;-77
2023/06/14 09:59:58;;;;;;;7.40;4.27;;;20.60;80.30;;;;;;489565;243;29260;-76
2023/06/14 10:01:59;;;;;;;4.10;3.70;;;20.30;79.80;;;;;;489391;243;29243;-77
2023/06/14 10:03:59;;;;;;;7.67;4.20;;;20.20;80.40;;;;;;489509;243;28834;-75
2023/06/14 10:06:01;;;;;;;5.33;3.87;;;20.20;79.30;;;;;;489592;243;28794;-76
2023/06/14 10:08:02;;;;;;;5.70;3.83;;;20.40;81.50;;;;;;489436;243;28739;-77
2023/06/14 10:10:03;;;;;;;8.20;3.97;;;20.50;79.30;;;;;;489556;243;28708;-76
2023/06/14 10:12:05;;;;;;;4.60;3.90;;;20.60;78.10;;;;;;489549;243;28764;-76
2023/06/14 10:14:05;;;;;;;4.23;3.83;;;20.40;78.20;;;;;;489554;243;28795;-76
2023/06/14 10:16:07;;;;;;;4.70;4.30;;;20.40;78.20;;;;;;489612;243;28794;-76
2023/06/14 10:18:08;;;;;;;8.67;3.90;;;20.20;78.10;;;;;;489597;243;28775;-76
2023/06/14 10:20:09;;;;;;;3.60;3.30;;;20.40;78.90;;;;;;489573;243;28713;-76
2023/06/14 10:22:10;;;;;;;3.73;3.37;;;20.30;78.40;;;;;;489557;243;29282;-76
2023/06/14 10:24:12;;;;;;;9.33;3.90;;;20.50;78.20;;;;;;489545;243;30052;-76
2023/06/14 10:26:13;;;;;;;7.50;4.13;;;20.50;78.20;;;;;;489555;243;29290;-76
2023/06/14 10:28:15;;;;;;;7.70;4.23;;;20.70;78.60;;;;;;489554;243;28744;-76
2023/06/14 10:30:15;;;;;;;9.20;4.17;;;21.30;79.30;;;;;;489505;243;28729;-75